createdAt,value
2019-03-22T00:00:28.697Z,41.23
2019-03-22T00:02:57.264Z,36.00
2019-03-22T00:05:25.669Z,40.60
2019-03-22T00:07:54.151Z,41.98
2019-03-22T00:10:22.621Z,44.10
2019-03-22T00:12:51.038Z,41.68
2019-03-22T00:15:19.455Z,46.68
2019-03-22T00:17:47.871Z,44.42
2019-03-22T00:20:16.294Z,42.75
2019-03-22T00:22:44.704Z,40.75
2019-03-22T00:25:13.102Z,39.63
2019-03-22T00:27:41.580Z,44.30
2019-03-22T00:30:11.406Z,44.45
2019-03-22T00:32:39.801Z,46.92
2019-03-22T00:35:08.587Z,44.88
2019-03-22T00:37:36.985Z,44.27
2019-03-22T00:40:06.117Z,42.85
2019-03-22T00:42:34.524Z,41.45
2019-03-22T00:45:03.544Z,43.15
2019-03-22T00:47:31.938Z,43.92
2019-03-22T00:50:00.449Z,44.55
2019-03-22T00:52:28.821Z,45.85
2019-03-22T00:54:57.244Z,46.50
2019-03-22T00:57:28.829Z,40.40
2019-03-22T00:59:55.803Z,45.83
2019-03-22T01:02:24.226Z,44.77
2019-03-22T01:04:52.784Z,31.57
2019-03-22T01:07:21.218Z,47.60
2019-03-22T01:09:49.644Z,46.53
2019-03-22T01:12:18.105Z,46.77
2019-03-22T01:14:46.711Z,42.55
2019-03-22T01:17:15.144Z,37.25
2019-03-22T01:19:43.529Z,43.70
2019-03-22T01:22:12.001Z,46.50
2019-03-22T01:24:40.400Z,39.13
2019-03-22T01:27:08.789Z,48.15
2019-03-22T01:29:37.315Z,49.27
2019-03-22T01:32:05.697Z,48.55
2019-03-22T01:34:34.165Z,49.88
2019-03-22T01:37:02.573Z,46.88
2019-03-22T01:39:31.072Z,49.00
2019-03-22T01:41:59.522Z,40.43
2019-03-22T01:44:27.890Z,38.17
2019-03-22T01:46:56.305Z,48.75
2019-03-22T01:49:24.725Z,44.27
2019-03-22T01:51:53.146Z,49.50
2019-03-22T01:54:21.574Z,47.35
2019-03-22T01:56:50.022Z,44.63
2019-03-22T01:59:18.534Z,39.18
2019-03-22T02:01:46.961Z,39.03
2019-03-22T02:04:15.390Z,44.48
2019-03-22T02:06:43.822Z,43.55
2019-03-22T02:09:12.238Z,48.05
2019-03-22T02:11:40.626Z,45.17
2019-03-22T02:14:09.051Z,49.25
2019-03-22T02:16:37.466Z,45.83
2019-03-22T02:19:05.916Z,48.60
2019-03-22T02:21:34.530Z,50.38
2019-03-22T02:24:02.927Z,51.68
2019-03-22T02:26:31.389Z,48.38
2019-03-22T02:28:59.807Z,51.30
2019-03-22T02:31:28.259Z,50.92
2019-03-22T02:33:56.779Z,50.83
2019-03-22T02:36:25.222Z,51.58
2019-03-22T02:38:53.657Z,50.85
2019-03-22T02:41:22.055Z,55.92
2019-03-22T02:43:50.445Z,53.75
2019-03-22T02:46:18.864Z,57.48
2019-03-22T02:48:47.343Z,56.40
2019-03-22T02:51:15.808Z,61.00
2019-03-22T02:53:44.345Z,56.85
2019-03-22T02:56:12.872Z,58.68
2019-03-22T02:58:41.474Z,60.35
2019-03-22T03:01:09.931Z,61.70
2019-03-22T03:03:38.331Z,61.85
2019-03-22T03:06:06.735Z,61.60
2019-03-22T03:08:35.222Z,64.53
2019-03-22T03:11:03.652Z,60.08
2019-03-22T03:13:32.207Z,63.30
2019-03-22T03:16:00.635Z,61.60
2019-03-22T03:18:29.058Z,66.80
2019-03-22T03:20:57.603Z,67.60
2019-03-22T03:23:25.999Z,65.05
2019-03-22T03:25:54.383Z,64.80
2019-03-22T03:28:36.167Z,66.00
2019-03-22T03:30:52.888Z,67.55
2019-03-22T03:33:21.302Z,66.50
2019-03-22T03:35:49.720Z,66.17
2019-03-22T03:38:18.104Z,66.70
2019-03-22T03:40:46.582Z,68.10
2019-03-22T03:43:14.965Z,68.65
2019-03-22T03:45:43.415Z,66.40
2019-03-22T03:48:11.888Z,68.47
2019-03-22T03:50:40.290Z,70.62
2019-03-22T03:53:08.784Z,70.30
2019-03-22T03:55:37.199Z,73.37
2019-03-22T03:58:05.649Z,70.37
2019-03-22T04:00:34.079Z,65.20
2019-03-22T04:03:02.501Z,67.15
2019-03-22T04:05:30.911Z,63.95
2019-03-22T04:07:59.368Z,63.50
2019-03-22T04:10:27.873Z,68.70
2019-03-22T04:12:56.383Z,67.32
2019-03-22T04:15:24.966Z,69.37
2019-03-22T04:17:53.365Z,70.47
2019-03-22T04:20:21.790Z,69.55
2019-03-22T04:22:50.204Z,60.10
2019-03-22T04:25:18.675Z,68.07
2019-03-22T04:27:47.043Z,70.25
2019-03-22T04:30:15.554Z,68.85
2019-03-22T04:32:43.942Z,70.30
2019-03-22T04:35:12.487Z,64.32
2019-03-22T04:37:40.937Z,64.37
2019-03-22T04:40:24.072Z,68.30
2019-03-22T04:42:52.514Z,65.17
2019-03-22T04:45:21.047Z,63.30
2019-03-22T04:47:49.448Z,67.22
2019-03-22T04:50:17.870Z,63.55
2019-03-22T04:52:46.293Z,61.83
2019-03-22T04:55:14.740Z,62.55
2019-03-22T04:57:43.208Z,65.67
2019-03-22T05:00:11.722Z,66.45
2019-03-22T05:02:40.463Z,65.87
2019-03-22T05:05:08.907Z,66.45
2019-03-22T05:07:37.389Z,65.30
2019-03-22T05:10:06.855Z,66.65
2019-03-22T05:12:35.322Z,69.58
2019-03-22T05:15:04.695Z,69.58
2019-03-22T05:17:33.119Z,70.28
2019-03-22T05:20:01.532Z,67.00
2019-03-22T05:22:29.956Z,62.65
2019-03-22T05:24:58.441Z,69.65
2019-03-22T05:27:26.829Z,71.45
2019-03-22T05:29:55.283Z,66.72
2019-03-22T05:32:23.680Z,67.32
2019-03-22T05:34:52.150Z,69.20
2019-03-22T05:37:20.569Z,66.87
2019-03-22T05:39:48.967Z,66.02
2019-03-22T05:42:17.417Z,66.92
2019-03-22T05:44:45.910Z,66.92
2019-03-22T05:47:14.293Z,63.42
2019-03-22T05:49:42.715Z,68.35
2019-03-22T05:52:11.206Z,67.55
2019-03-22T05:54:39.587Z,59.75
2019-03-22T05:57:13.229Z,67.30
2019-03-22T05:59:42.753Z,70.30
2019-03-22T06:02:08.119Z,64.75
2019-03-22T06:04:36.513Z,67.82
2019-03-22T06:07:04.934Z,70.17
2019-03-22T06:09:33.363Z,69.53
2019-03-22T06:12:01.800Z,66.37
2019-03-22T06:14:30.572Z,70.95
2019-03-22T06:16:59.005Z,68.60
2019-03-22T06:19:27.410Z,60.88
2019-03-22T06:21:55.851Z,69.00
2019-03-22T06:24:24.280Z,68.25
2019-03-22T06:26:52.669Z,70.57
2019-03-22T06:29:21.183Z,73.35
2019-03-22T06:31:49.609Z,70.03
2019-03-22T06:34:18.085Z,69.58
2019-03-22T06:36:46.477Z,69.67
2019-03-22T06:39:14.886Z,70.70
2019-03-22T06:41:43.355Z,71.00
2019-03-22T06:44:11.774Z,67.80
2019-03-22T06:46:40.157Z,70.42
2019-03-22T06:49:08.601Z,71.95
2019-03-22T06:51:37.100Z,69.20
2019-03-22T06:54:05.570Z,68.45
2019-03-22T06:56:34.011Z,70.55
2019-03-22T06:59:02.400Z,69.32
2019-03-22T07:01:30.935Z,70.42
2019-03-22T07:03:59.323Z,69.65
2019-03-22T07:06:29.456Z,69.47
2019-03-22T07:08:57.931Z,66.67
2019-03-22T07:11:26.356Z,73.87
2019-03-22T07:13:54.742Z,72.92
2019-03-22T07:16:23.197Z,65.92
2019-03-22T07:18:51.669Z,71.85
2019-03-22T07:21:20.103Z,68.40
2019-03-22T07:23:48.617Z,69.32
2019-03-22T07:26:17.022Z,71.95
2019-03-22T07:28:45.455Z,73.87
2019-03-22T07:31:13.931Z,71.02
2019-03-22T07:33:42.389Z,72.22
2019-03-22T07:36:10.773Z,71.77
2019-03-22T07:38:39.225Z,73.02
2019-03-22T07:41:07.623Z,66.97
2019-03-22T07:43:36.033Z,67.35
2019-03-22T07:46:04.483Z,68.95
2019-03-22T07:48:32.963Z,64.62
2019-03-22T07:51:01.463Z,70.95
2019-03-22T07:53:30.038Z,67.05
2019-03-22T07:55:58.500Z,69.07
2019-03-22T07:58:26.988Z,68.40
2019-03-22T08:00:55.444Z,66.60
2019-03-22T08:03:24.086Z,64.30
2019-03-22T08:05:52.543Z,70.08
2019-03-22T08:08:20.981Z,68.97
2019-03-22T08:10:50.422Z,66.00
2019-03-22T08:13:18.879Z,64.65
2019-03-22T08:15:47.390Z,64.82
2019-03-22T08:18:15.852Z,63.95
2019-03-22T08:20:44.305Z,66.50
2019-03-22T08:23:20.740Z,62.98
2019-03-22T08:25:49.406Z,64.17
2019-03-22T08:28:17.863Z,69.12
2019-03-22T08:30:47.378Z,66.53
2019-03-22T08:33:15.885Z,65.92
2019-03-22T08:35:44.343Z,65.62
2019-03-22T08:38:12.823Z,63.38
2019-03-22T08:40:41.272Z,61.00
2019-03-22T08:43:09.799Z,61.45
2019-03-22T08:45:38.229Z,64.82
2019-03-22T08:48:06.657Z,67.22
2019-03-22T08:50:35.248Z,62.30
2019-03-22T08:53:03.684Z,58.52
2019-03-22T08:55:32.183Z,61.25
2019-03-22T08:58:00.696Z,64.12
2019-03-22T09:00:38.721Z,65.10
2019-03-22T09:02:59.236Z,63.33
2019-03-22T09:05:27.734Z,63.28
2019-03-22T09:07:56.175Z,62.80
2019-03-22T09:10:24.652Z,64.53
2019-03-22T09:12:53.141Z,61.80
2019-03-22T09:15:21.637Z,61.60
2019-03-22T09:17:50.066Z,58.15
2019-03-22T09:20:19.709Z,59.27
2019-03-22T09:22:48.146Z,42.38
2019-03-22T09:25:16.704Z,58.45
2019-03-22T09:27:45.145Z,60.67
2019-03-22T09:30:14.326Z,61.77
2019-03-22T09:32:51.525Z,59.23
2019-03-22T09:35:20.001Z,56.65
2019-03-22T09:37:51.291Z,58.92
2019-03-22T09:40:19.677Z,59.53
2019-03-22T09:42:48.181Z,59.50
2019-03-22T09:45:16.731Z,58.08
2019-03-22T09:47:45.285Z,57.70
2019-03-22T09:50:13.779Z,60.17
2019-03-22T09:52:42.313Z,59.48
2019-03-22T09:55:13.868Z,57.23
2019-03-22T09:57:40.827Z,59.23
2019-03-22T10:00:12.630Z,58.40
2019-03-22T10:02:40.992Z,59.10
2019-03-22T10:05:09.483Z,61.10
2019-03-22T10:07:37.913Z,57.53
2019-03-22T10:10:06.782Z,55.03
2019-03-22T10:12:35.203Z,56.58
2019-03-22T10:15:05.386Z,56.37
2019-03-22T10:17:35.477Z,56.55
2019-03-22T10:20:05.893Z,58.42
2019-03-22T10:22:34.307Z,58.50
2019-03-22T10:25:02.830Z,56.70
2019-03-22T10:27:31.212Z,56.10
2019-03-22T10:29:59.738Z,56.77
2019-03-22T10:32:28.145Z,57.25
2019-03-22T10:34:56.558Z,54.88
2019-03-22T10:37:24.996Z,56.75
2019-03-22T10:39:53.376Z,51.33
2019-03-22T10:42:21.881Z,55.38
2019-03-22T10:44:50.304Z,56.48
2019-03-22T10:47:18.747Z,53.40
2019-03-22T10:49:47.202Z,55.38
2019-03-22T10:52:15.608Z,54.58
2019-03-22T10:54:44.041Z,54.27
2019-03-22T10:57:12.468Z,55.83
2019-03-22T10:59:40.895Z,53.08
2019-03-22T11:02:09.360Z,55.38
2019-03-22T11:04:37.760Z,54.48
2019-03-22T11:07:06.156Z,52.88
2019-03-22T11:09:34.659Z,52.53
2019-03-22T11:12:11.850Z,53.17
2019-03-22T11:14:33.139Z,51.73
2019-03-22T11:17:01.540Z,53.15
2019-03-22T11:19:30.099Z,51.63
2019-03-22T11:21:58.493Z,50.45
2019-03-22T11:24:26.896Z,51.28
2019-03-22T11:26:55.328Z,49.40
2019-03-22T11:29:26.448Z,45.78
2019-03-22T11:31:54.896Z,50.35
2019-03-22T11:34:23.300Z,49.83
2019-03-22T11:36:51.713Z,51.23
2019-03-22T11:39:20.129Z,45.05
2019-03-22T11:41:48.530Z,49.27
2019-03-22T11:44:16.978Z,47.65
2019-03-22T11:46:45.356Z,48.68
2019-03-22T11:49:13.949Z,47.98
2019-03-22T11:51:43.376Z,46.45
2019-03-22T11:54:11.762Z,46.70
2019-03-22T11:56:40.186Z,45.83
2019-03-22T11:59:10.602Z,45.23
2019-03-22T12:01:39.069Z,46.58
2019-03-22T12:04:07.484Z,43.65
2019-03-22T12:06:35.978Z,39.53
2019-03-22T12:09:05.982Z,40.58
2019-03-22T12:11:34.397Z,36.70
2019-03-22T12:14:02.822Z,37.05
2019-03-22T12:16:31.237Z,35.40
2019-03-22T12:18:59.660Z,34.58
2019-03-22T12:21:28.079Z,32.98
2019-03-22T12:23:56.468Z,33.28
2019-03-22T12:26:24.904Z,33.70
2019-03-22T12:28:53.337Z,34.58
2019-03-22T12:31:21.739Z,36.42
2019-03-22T12:33:50.167Z,35.30
2019-03-22T12:36:18.622Z,34.90
2019-03-22T12:38:47.003Z,32.45
2019-03-22T12:41:15.419Z,31.97
2019-03-22T12:43:43.827Z,32.55
2019-03-22T12:46:12.247Z,33.60
2019-03-22T12:48:40.655Z,32.65
2019-03-22T12:51:09.248Z,29.85
2019-03-22T12:53:37.657Z,28.45
2019-03-22T12:56:06.056Z,23.47
2019-03-22T12:58:34.497Z,27.52
2019-03-22T13:01:03.921Z,28.50
2019-03-22T13:03:32.314Z,25.40
2019-03-22T13:06:00.790Z,24.63
2019-03-22T13:08:29.249Z,23.80
2019-03-22T13:10:57.625Z,23.90
2019-03-22T13:13:26.098Z,24.18
2019-03-22T13:15:54.474Z,22.82
2019-03-22T13:18:22.888Z,20.95
2019-03-22T13:20:52.275Z,23.57
2019-03-22T13:23:20.745Z,22.17
2019-03-22T13:25:49.186Z,23.07
2019-03-22T13:28:17.623Z,21.45
2019-03-22T13:30:46.069Z,20.62
2019-03-22T13:33:14.590Z,23.05
2019-03-22T13:35:43.029Z,20.88
2019-03-22T13:38:11.414Z,20.27
2019-03-22T13:40:39.825Z,19.67
2019-03-22T13:43:08.243Z,18.95
2019-03-22T13:45:36.657Z,17.95
2019-03-22T13:48:05.070Z,18.55
2019-03-22T13:50:33.477Z,18.23
2019-03-22T13:53:01.952Z,16.85
2019-03-22T13:55:30.380Z,17.70
2019-03-22T13:57:58.762Z,15.58
2019-03-22T14:00:27.238Z,17.77
2019-03-22T14:03:03.008Z,15.68
2019-03-22T14:05:25.703Z,16.45
2019-03-22T14:07:54.109Z,15.30
2019-03-22T14:10:30.177Z,15.43
2019-03-22T14:12:59.813Z,14.43
2019-03-22T14:15:28.387Z,14.18
2019-03-22T14:17:57.864Z,13.35
2019-03-22T14:20:26.272Z,13.80
2019-03-22T14:22:54.697Z,13.83
2019-03-22T14:25:23.236Z,13.90
2019-03-22T14:27:53.277Z,13.10
2019-03-22T14:30:21.704Z,12.10
2019-03-22T14:32:50.098Z,12.45
2019-03-22T14:35:18.511Z,13.18
2019-03-22T14:37:46.921Z,11.73
2019-03-22T14:40:15.767Z,10.98
2019-03-22T14:42:44.370Z,11.20
2019-03-22T14:45:12.803Z,11.15
2019-03-22T14:47:41.244Z,12.33
2019-03-22T14:50:09.646Z,11.85
2019-03-22T14:52:38.089Z,12.90
2019-03-22T14:55:06.707Z,12.10
2019-03-22T14:57:35.256Z,11.28
2019-03-22T15:00:05.416Z,12.23
2019-03-22T15:02:33.869Z,12.68
2019-03-22T15:05:02.354Z,10.55
2019-03-22T15:07:30.775Z,11.03
2019-03-22T15:09:59.177Z,11.90
2019-03-22T15:12:27.924Z,11.57
2019-03-22T15:14:58.063Z,12.70
2019-03-22T15:17:37.446Z,12.53
2019-03-22T15:20:10.169Z,11.55
2019-03-22T15:22:40.334Z,12.37
2019-03-22T15:25:28.773Z,13.10
2019-03-22T15:28:15.109Z,13.30
2019-03-22T15:31:01.644Z,15.45
2019-03-22T15:33:43.666Z,15.53
2019-03-22T15:36:32.575Z,14.60
2019-03-22T15:39:02.735Z,14.33
2019-03-22T15:41:31.384Z,15.18
2019-03-22T15:43:59.850Z,16.20
2019-03-22T15:46:28.245Z,16.57
2019-03-22T15:48:56.690Z,15.30
2019-03-22T15:51:25.167Z,15.30
2019-03-22T15:53:53.763Z,15.60
2019-03-22T15:56:22.262Z,15.03
2019-03-22T15:58:50.862Z,17.15
2019-03-22T16:01:19.281Z,14.73
2019-03-22T16:03:47.839Z,15.50
2019-03-22T16:06:16.315Z,15.53
2019-03-22T16:08:45.062Z,15.60
2019-03-22T16:11:13.833Z,14.23
2019-03-22T16:13:42.508Z,13.58
2019-03-22T16:16:10.996Z,13.85
2019-03-22T16:18:42.448Z,13.65
2019-03-22T16:21:10.866Z,13.98
2019-03-22T16:23:39.395Z,12.90
2019-03-22T16:26:07.794Z,13.03
2019-03-22T16:28:36.254Z,13.95
2019-03-22T16:31:04.682Z,14.28
2019-03-22T16:33:34.149Z,13.88
2019-03-22T16:36:02.681Z,12.28
2019-03-22T16:38:31.174Z,12.63
2019-03-22T16:40:59.672Z,13.45
2019-03-22T16:43:28.081Z,13.08
2019-03-22T16:45:56.564Z,12.95
2019-03-22T16:48:24.966Z,12.25
2019-03-22T16:50:53.465Z,14.07
2019-03-22T16:53:21.933Z,12.45
2019-03-22T16:55:50.373Z,12.65
2019-03-22T16:58:18.810Z,12.95
2019-03-22T17:00:49.783Z,12.82
2019-03-22T17:03:35.642Z,12.18
2019-03-22T17:06:04.082Z,13.78
2019-03-22T17:08:32.490Z,12.15
2019-03-22T17:11:00.982Z,12.70
2019-03-22T17:13:29.443Z,14.15
2019-03-22T17:15:57.892Z,12.63
2019-03-22T17:18:26.301Z,12.80
2019-03-22T17:20:54.717Z,13.03
2019-03-22T17:23:23.149Z,13.43
2019-03-22T17:25:52.558Z,12.65
2019-03-22T17:28:20.981Z,12.37
2019-03-22T17:30:50.402Z,13.40
2019-03-22T17:33:18.795Z,12.18
2019-03-22T17:35:49.241Z,11.38
2019-03-22T17:38:17.650Z,12.00
2019-03-22T17:40:47.019Z,12.20
2019-03-22T17:43:15.469Z,12.95
2019-03-22T17:45:43.923Z,13.45
2019-03-22T17:48:12.356Z,12.23
2019-03-22T17:50:40.754Z,12.70
2019-03-22T17:53:09.160Z,12.88
2019-03-22T17:55:38.463Z,14.03
2019-03-22T17:58:06.884Z,11.97
2019-03-22T18:00:35.642Z,13.18
2019-03-22T18:03:04.049Z,12.90
2019-03-22T18:05:32.507Z,14.40
2019-03-22T18:08:01.028Z,13.50
2019-03-22T18:10:29.480Z,14.63
2019-03-22T18:12:57.869Z,12.10
2019-03-22T18:15:26.310Z,12.58
2019-03-22T18:17:54.995Z,14.40
2019-03-22T18:20:23.381Z,14.00
2019-03-22T18:22:51.765Z,13.88
2019-03-22T18:25:20.215Z,14.03
2019-03-22T18:27:48.601Z,15.00
2019-03-22T18:30:17.068Z,14.05
2019-03-22T18:32:45.446Z,13.70
2019-03-22T18:35:14.912Z,13.28
2019-03-22T18:37:43.307Z,16.65
2019-03-22T18:40:15.269Z,15.00
2019-03-22T18:42:43.871Z,14.85
2019-03-22T18:45:13.141Z,14.83
2019-03-22T18:47:42.177Z,14.78
2019-03-22T18:50:11.481Z,14.55
2019-03-22T18:52:39.988Z,14.78
2019-03-22T18:55:08.615Z,15.78
2019-03-22T18:57:37.079Z,14.73
2019-03-22T19:00:08.167Z,14.98
2019-03-22T19:02:36.604Z,15.65
2019-03-22T19:05:30.293Z,16.52
2019-03-22T19:07:58.739Z,15.03
2019-03-22T19:10:27.149Z,15.63
2019-03-22T19:12:55.776Z,15.00
2019-03-22T19:15:24.341Z,15.68
2019-03-22T19:17:52.884Z,12.95
2019-03-22T19:20:21.322Z,15.30
2019-03-22T19:22:49.737Z,12.82
2019-03-22T19:25:18.268Z,15.45
2019-03-22T19:27:46.850Z,16.95
2019-03-22T19:30:16.275Z,15.63
2019-03-22T19:32:44.745Z,14.58
2019-03-22T19:35:14.953Z,16.55
2019-03-22T19:37:43.413Z,16.42
2019-03-22T19:40:13.848Z,15.60
2019-03-22T19:42:42.479Z,15.13
2019-03-22T19:45:12.010Z,14.65
2019-03-22T19:47:40.774Z,16.70
2019-03-22T19:50:14.437Z,16.07
2019-03-22T19:52:43.096Z,15.40
2019-03-22T19:55:12.193Z,16.32
2019-03-22T19:57:40.783Z,17.62
2019-03-22T20:00:15.416Z,17.92
2019-03-22T20:02:43.913Z,17.07
2019-03-22T20:05:15.887Z,15.63
2019-03-22T20:07:44.291Z,18.98
2019-03-22T20:10:13.389Z,16.97
2019-03-22T20:12:41.846Z,16.60
2019-03-22T20:15:10.477Z,15.23
2019-03-22T20:17:39.013Z,18.05
2019-03-22T20:20:08.649Z,18.27
2019-03-22T20:22:37.135Z,17.73
2019-03-22T20:25:07.370Z,16.95
2019-03-22T20:27:35.891Z,19.27
2019-03-22T20:30:06.353Z,17.77
2019-03-22T20:32:34.804Z,18.12
2019-03-22T20:35:15.326Z,18.10
2019-03-22T20:37:34.688Z,17.85
2019-03-22T20:40:07.923Z,18.15
2019-03-22T20:42:36.569Z,19.32
2019-03-22T20:45:06.281Z,19.07
2019-03-22T20:47:34.743Z,19.50
2019-03-22T20:50:03.598Z,19.82
2019-03-22T20:52:32.093Z,21.00
2019-03-22T20:55:20.032Z,21.37
2019-03-22T20:57:48.550Z,23.27
2019-03-22T21:00:18.117Z,22.58
2019-03-22T21:02:46.551Z,24.00
2019-03-22T21:05:26.111Z,24.05
2019-03-22T21:07:45.622Z,24.43
2019-03-22T21:10:14.057Z,27.13
2019-03-22T21:12:42.513Z,24.12
2019-03-22T21:15:12.079Z,24.15
2019-03-22T21:17:40.567Z,23.55
2019-03-22T21:20:27.050Z,31.75
2019-03-22T21:22:55.422Z,34.60
2019-03-22T21:25:23.838Z,38.83
2019-03-22T21:27:52.383Z,40.78
2019-03-22T21:30:22.554Z,46.13
2019-03-22T21:32:51.173Z,50.52
2019-03-22T21:35:22.740Z,60.00
2019-03-22T21:37:50.117Z,60.30
2019-03-22T21:40:18.705Z,60.10
2019-03-22T21:42:47.104Z,63.95
2019-03-22T21:45:15.705Z,74.30
2019-03-22T21:47:44.116Z,71.67
2019-03-22T21:50:12.549Z,74.07
2019-03-22T21:52:41.010Z,75.75
2019-03-22T21:55:09.586Z,78.10
2019-03-22T21:57:38.051Z,81.67
2019-03-22T22:00:08.449Z,93.67
2019-03-22T22:02:37.139Z,97.05
2019-03-22T22:05:06.813Z,87.85
2019-03-22T22:07:35.300Z,87.08
2019-03-22T22:10:06.430Z,68.70
2019-03-22T22:12:34.876Z,65.35
2019-03-22T22:15:03.930Z,54.95
2019-03-22T22:17:32.381Z,56.60
2019-03-22T22:20:00.909Z,55.45
2019-03-22T22:22:29.306Z,56.55
2019-03-22T22:24:57.816Z,55.40
2019-03-22T22:27:26.382Z,56.30
2019-03-22T22:29:54.745Z,54.03
2019-03-22T22:32:23.443Z,52.25
2019-03-22T22:34:51.859Z,101.27
2019-03-22T22:37:20.294Z,62.90
2019-03-22T22:39:48.681Z,77.58
2019-03-22T22:42:17.302Z,59.85
2019-03-22T22:44:45.777Z,78.05
2019-03-22T22:47:14.299Z,67.80
2019-03-22T22:49:42.714Z,63.75
2019-03-22T22:52:11.306Z,65.78
2019-03-22T22:54:39.678Z,61.68
2019-03-22T22:57:08.193Z,70.70
2019-03-22T22:59:39.605Z,67.78
2019-03-22T23:02:10.910Z,71.17
2019-03-22T23:04:39.414Z,72.87
2019-03-22T23:07:07.883Z,72.42
2019-03-22T23:09:36.342Z,71.30
2019-03-22T23:12:05.133Z,78.37
2019-03-22T23:14:33.552Z,76.62
2019-03-22T23:17:01.932Z,84.60
2019-03-22T23:19:30.405Z,82.60
2019-03-22T23:21:58.795Z,77.55
2019-03-22T23:24:27.279Z,84.77
2019-03-22T23:26:55.705Z,81.75
2019-03-22T23:29:24.088Z,79.53
2019-03-22T23:31:52.586Z,78.80
2019-03-22T23:34:21.007Z,78.90
2019-03-22T23:36:49.484Z,74.70
2019-03-22T23:39:17.959Z,70.78
2019-03-22T23:41:46.333Z,77.15
2019-03-22T23:44:14.898Z,73.70
2019-03-22T23:46:43.333Z,76.20
2019-03-22T23:49:11.727Z,87.27
2019-03-22T23:51:40.430Z,77.47
2019-03-22T23:54:08.894Z,76.92
2019-03-22T23:56:37.294Z,70.08
2019-03-22T23:59:05.686Z,71.97
